createdAt,value
2024-01-20T00:00:51.343Z,0.73
2024-01-20T00:01:51.298Z,0.77
2024-01-20T00:02:51.255Z,0.74
2024-01-20T00:03:51.220Z,0.76
2024-01-20T00:04:51.456Z,0.76
2024-01-20T00:05:51.137Z,0.73
2024-01-20T00:06:51.165Z,0.78
2024-01-20T00:07:51.082Z,0.68
2024-01-20T00:08:51.020Z,0.80
2024-01-20T00:09:52.259Z,0.86
2024-01-20T00:10:50.994Z,0.80
2024-01-20T00:11:50.889Z,0.78
2024-01-20T00:12:50.850Z,0.74
2024-01-20T00:13:50.855Z,0.78
2024-01-20T00:14:50.802Z,0.74
2024-01-20T00:15:50.721Z,0.73
2024-01-20T00:16:50.707Z,0.66
2024-01-20T00:17:50.761Z,0.69
2024-01-20T00:18:50.668Z,0.62
2024-01-20T00:19:53.237Z,0.63
2024-01-20T00:20:50.587Z,0.59
2024-01-20T00:21:50.481Z,0.65
2024-01-20T00:22:50.478Z,0.60
2024-01-20T00:23:50.404Z,0.66
2024-01-20T00:24:50.648Z,0.65
2024-01-20T00:25:50.368Z,0.63
2024-01-20T00:26:50.284Z,0.60
2024-01-20T00:27:50.244Z,0.55
2024-01-20T00:28:50.222Z,0.49
2024-01-20T00:29:50.433Z,0.60
2024-01-20T00:30:50.126Z,0.56
2024-01-20T00:31:50.155Z,0.65
2024-01-20T00:32:50.228Z,0.60
2024-01-20T00:33:50.084Z,0.58
2024-01-20T00:35:00.113Z,0.50
2024-01-20T00:35:50.053Z,0.56
2024-01-20T00:36:49.892Z,0.55
2024-01-20T00:37:49.877Z,0.59
2024-01-20T00:38:49.810Z,0.49
2024-01-20T00:39:50.051Z,0.55
2024-01-20T00:40:49.741Z,0.52
2024-01-20T00:41:49.687Z,0.44
2024-01-20T00:42:49.650Z,0.47
2024-01-20T00:43:49.617Z,0.50
2024-01-20T00:44:49.833Z,0.44
2024-01-20T00:45:49.555Z,0.47
2024-01-20T00:46:49.509Z,0.50
2024-01-20T00:47:49.493Z,0.52
2024-01-20T00:48:49.558Z,0.50
2024-01-20T00:49:49.684Z,0.49
2024-01-20T00:50:49.327Z,0.49
2024-01-20T00:51:49.285Z,0.55
2024-01-20T00:52:49.271Z,0.47
2024-01-20T00:53:49.248Z,0.50
2024-01-20T00:54:49.165Z,0.52
2024-01-20T00:55:49.166Z,0.52
2024-01-20T00:56:49.086Z,0.52
2024-01-20T00:57:49.065Z,0.49
2024-01-20T00:58:49.034Z,0.46
2024-01-20T00:59:49.251Z,0.52
2024-01-20T01:00:48.975Z,0.49
2024-01-20T01:01:48.907Z,0.44
2024-01-20T01:02:48.967Z,0.49
2024-01-20T01:03:48.875Z,0.39
2024-01-20T01:04:49.133Z,0.43
2024-01-20T01:05:48.770Z,0.39
2024-01-20T01:06:48.693Z,0.49
2024-01-20T01:07:48.672Z,0.52
2024-01-20T01:08:48.599Z,0.41
2024-01-20T01:09:48.845Z,0.40
2024-01-20T01:10:48.554Z,0.46
2024-01-20T01:11:48.487Z,0.32
2024-01-20T01:12:48.452Z,0.36
2024-01-20T01:13:48.425Z,0.32
2024-01-20T01:14:48.639Z,0.34
2024-01-20T01:15:48.324Z,0.26
2024-01-20T01:16:48.308Z,0.31
2024-01-20T01:17:48.323Z,0.36
2024-01-20T01:18:48.426Z,0.36
2024-01-20T01:19:48.455Z,0.39
2024-01-20T01:20:48.123Z,0.32
2024-01-20T01:21:48.082Z,0.36
2024-01-20T01:22:48.065Z,0.28
2024-01-20T01:23:48.028Z,0.32
2024-01-20T01:24:48.235Z,0.36
2024-01-20T01:25:47.940Z,0.28
2024-01-20T01:26:47.944Z,0.36
2024-01-20T01:27:47.841Z,0.36
2024-01-20T01:28:47.825Z,0.25
2024-01-20T01:29:48.055Z,0.36
2024-01-20T01:30:47.720Z,0.29
2024-01-20T01:31:47.706Z,0.31
2024-01-20T01:32:47.651Z,0.34
2024-01-20T01:33:47.884Z,0.36
2024-01-20T01:34:47.625Z,0.44
2024-01-20T01:35:47.531Z,0.36
2024-01-20T01:36:47.483Z,0.31
2024-01-20T01:37:47.452Z,0.41
2024-01-20T01:38:47.429Z,0.36
2024-01-20T01:39:47.355Z,0.36
2024-01-20T01:40:47.328Z,0.50
2024-01-20T01:41:47.270Z,0.43
2024-01-20T01:42:47.236Z,0.37
2024-01-20T01:43:47.492Z,0.31
2024-01-20T01:44:47.157Z,0.37
2024-01-20T01:45:47.109Z,0.32
2024-01-20T01:46:47.102Z,0.26
2024-01-20T01:47:47.084Z,0.36
2024-01-20T01:48:47.304Z,0.32
2024-01-20T01:49:47.041Z,0.37
2024-01-20T01:50:46.974Z,0.50
2024-01-20T01:51:46.918Z,0.44
2024-01-20T01:52:46.832Z,0.46
2024-01-20T01:53:46.811Z,0.52
2024-01-20T01:54:46.761Z,0.55
2024-01-20T01:55:46.706Z,0.46
2024-01-20T01:56:46.671Z,0.49
2024-01-20T01:57:46.623Z,0.47
2024-01-20T01:58:46.884Z,0.58
2024-01-20T01:59:46.559Z,0.66
2024-01-20T02:00:54.245Z,0.70
2024-01-20T02:01:46.468Z,0.80
2024-01-20T02:02:46.459Z,0.83
2024-01-20T02:03:46.856Z,0.84
2024-01-20T02:04:46.381Z,0.83
2024-01-20T02:05:46.299Z,0.91
2024-01-20T02:06:46.322Z,0.88
2024-01-20T02:07:46.497Z,0.88
2024-01-20T02:08:46.182Z,0.88
2024-01-20T02:09:46.141Z,0.88
2024-01-20T02:10:46.103Z,0.96
2024-01-20T02:11:46.063Z,0.88
2024-01-20T02:12:46.025Z,0.88
2024-01-20T02:13:46.261Z,0.87
2024-01-20T02:14:45.945Z,0.94
2024-01-20T02:15:45.914Z,0.94
2024-01-20T02:16:45.865Z,0.98
2024-01-20T02:17:45.842Z,1.08
2024-01-20T02:18:46.090Z,0.94
2024-01-20T02:19:45.773Z,0.96
2024-01-20T02:20:45.704Z,0.88
2024-01-20T02:21:45.669Z,0.96
2024-01-20T02:22:45.621Z,0.98
2024-01-20T02:23:45.871Z,0.87
2024-01-20T02:24:45.540Z,0.92
2024-01-20T02:25:45.498Z,0.86
2024-01-20T02:26:45.460Z,0.86
2024-01-20T02:27:45.493Z,0.95
2024-01-20T02:28:45.664Z,0.94
2024-01-20T02:29:45.337Z,0.92
2024-01-20T02:30:45.313Z,0.91
2024-01-20T02:31:45.257Z,0.95
2024-01-20T02:32:45.681Z,0.87
2024-01-20T02:33:45.272Z,0.86
2024-01-20T02:34:45.151Z,0.88
2024-01-20T02:35:45.107Z,0.98
2024-01-20T02:36:45.063Z,0.88
2024-01-20T02:37:45.290Z,0.92
2024-01-20T02:38:44.976Z,0.91
2024-01-20T02:39:44.941Z,0.91
2024-01-20T02:40:44.902Z,0.92
2024-01-20T02:41:44.862Z,0.91
2024-01-20T02:42:45.101Z,0.87
2024-01-20T02:43:44.781Z,0.88
2024-01-20T02:44:44.756Z,0.88
2024-01-20T02:45:44.705Z,0.94
2024-01-20T02:46:44.669Z,0.96
2024-01-20T02:47:44.957Z,0.88
2024-01-20T02:48:44.707Z,0.92
2024-01-20T02:49:44.668Z,0.91
2024-01-20T02:50:44.498Z,0.86
2024-01-20T02:51:44.490Z,0.92
2024-01-20T02:52:44.712Z,0.87
2024-01-20T02:53:44.387Z,0.91
2024-01-20T02:54:44.356Z,0.83
2024-01-20T02:55:44.307Z,0.91
2024-01-20T02:56:44.258Z,0.88
2024-01-20T02:57:44.218Z,0.88
2024-01-20T02:58:44.458Z,0.91
2024-01-20T02:59:44.140Z,0.92
2024-01-20T03:00:44.176Z,0.87
2024-01-20T03:01:44.075Z,0.94
2024-01-20T03:02:44.292Z,0.94
2024-01-20T03:03:44.013Z,0.95
2024-01-20T03:04:43.958Z,0.84
2024-01-20T03:05:43.928Z,0.81
2024-01-20T03:06:43.873Z,0.86
2024-01-20T03:07:44.112Z,0.86
2024-01-20T03:08:43.793Z,0.87
2024-01-20T03:09:43.754Z,0.92
2024-01-20T03:10:43.716Z,0.83
2024-01-20T03:11:43.761Z,0.84
2024-01-20T03:12:43.901Z,0.84
2024-01-20T03:13:43.627Z,0.87
2024-01-20T03:14:43.550Z,0.86
2024-01-20T03:15:43.529Z,0.80
2024-01-20T03:16:43.510Z,0.74
2024-01-20T03:17:43.525Z,0.76
2024-01-20T03:18:43.686Z,0.76
2024-01-20T03:19:43.394Z,0.69
2024-01-20T03:20:43.316Z,0.70
2024-01-20T03:21:43.274Z,0.76
2024-01-20T03:22:43.245Z,0.70
2024-01-20T03:23:43.480Z,0.78
2024-01-20T03:24:43.161Z,0.74
2024-01-20T03:25:43.109Z,0.73
2024-01-20T03:26:43.071Z,0.73
2024-01-20T03:27:43.053Z,0.70
2024-01-20T03:28:43.267Z,0.76
2024-01-20T03:29:42.961Z,0.74
2024-01-20T03:30:42.946Z,0.74
2024-01-20T03:31:42.880Z,0.77
2024-01-20T03:32:42.858Z,0.70
2024-01-20T03:33:42.908Z,0.78
2024-01-20T03:34:42.801Z,0.84
2024-01-20T03:35:42.729Z,0.80
2024-01-20T03:36:42.674Z,0.86
2024-01-20T03:37:51.279Z,0.87
2024-01-20T03:38:42.874Z,1.02
2024-01-20T03:39:42.576Z,1.01
2024-01-20T03:40:42.518Z,1.01
2024-01-20T03:41:42.487Z,1.02
2024-01-20T03:42:42.445Z,1.02
2024-01-20T03:43:42.416Z,1.06
2024-01-20T03:44:42.366Z,1.05
2024-01-20T03:45:42.315Z,1.05
2024-01-20T03:46:42.285Z,1.08
2024-01-20T03:47:42.271Z,1.13
2024-01-20T03:48:42.351Z,1.20
2024-01-20T03:49:42.333Z,1.22
2024-01-20T03:50:42.143Z,1.20
2024-01-20T03:51:42.080Z,1.17
2024-01-20T03:52:42.381Z,1.22
2024-01-20T03:53:42.293Z,1.34
2024-01-20T03:54:41.972Z,1.17
2024-01-20T03:55:41.916Z,1.23
2024-01-20T03:56:41.878Z,1.22
2024-01-20T03:57:41.836Z,1.26
2024-01-20T03:58:42.649Z,1.26
2024-01-20T03:59:41.765Z,1.24
2024-01-20T04:00:41.769Z,1.28
2024-01-20T04:01:41.787Z,1.17
2024-01-20T04:02:44.214Z,1.14
2024-01-20T04:03:41.742Z,1.20
2024-01-20T04:04:41.853Z,1.30
2024-01-20T04:05:41.522Z,1.28
2024-01-20T04:06:41.483Z,1.20
2024-01-20T04:07:41.459Z,1.22
2024-01-20T04:08:41.435Z,1.31
2024-01-20T04:09:41.366Z,1.26
2024-01-20T04:10:41.321Z,1.24
2024-01-20T04:11:41.282Z,1.26
2024-01-20T04:12:41.258Z,1.23
2024-01-20T04:13:41.476Z,1.17
2024-01-20T04:14:41.161Z,1.20
2024-01-20T04:15:41.125Z,1.30
2024-01-20T04:16:41.104Z,1.34
2024-01-20T04:17:41.081Z,1.24
2024-01-20T04:18:41.252Z,1.26
2024-01-20T04:19:41.770Z,1.31
2024-01-20T04:20:40.932Z,1.26
2024-01-20T04:21:40.908Z,1.26
2024-01-20T04:22:40.842Z,1.30
2024-01-20T04:23:40.836Z,1.32
2024-01-20T04:24:40.773Z,1.32
2024-01-20T04:25:40.732Z,1.26
2024-01-20T04:26:40.703Z,1.30
2024-01-20T04:27:40.653Z,1.22
2024-01-20T04:28:40.917Z,1.30
2024-01-20T04:29:40.627Z,1.31
2024-01-20T04:30:40.589Z,1.23
2024-01-20T04:31:40.494Z,1.22
2024-01-20T04:32:40.525Z,1.19
2024-01-20T04:33:40.846Z,1.17
2024-01-20T04:34:40.481Z,1.17
2024-01-20T04:35:40.338Z,1.19
2024-01-20T04:36:40.290Z,1.20
2024-01-20T04:37:40.258Z,1.17
2024-01-20T04:38:40.507Z,1.20
2024-01-20T04:39:42.612Z,1.19
2024-01-20T04:40:40.138Z,1.26
2024-01-20T04:41:40.110Z,1.17
2024-01-20T04:42:40.093Z,1.26
2024-01-20T04:43:40.046Z,1.28
2024-01-20T04:44:40.067Z,1.28
2024-01-20T04:45:40.061Z,1.30
2024-01-20T04:46:39.903Z,1.28
2024-01-20T04:47:39.877Z,1.28
2024-01-20T04:48:40.240Z,1.26
2024-01-20T04:49:39.825Z,1.30
2024-01-20T04:50:39.737Z,1.34
2024-01-20T04:51:39.722Z,1.35
2024-01-20T04:52:39.665Z,1.34
2024-01-20T04:53:39.890Z,1.34
2024-01-20T04:54:39.716Z,1.32
2024-01-20T04:55:39.547Z,1.26
2024-01-20T04:56:39.503Z,1.28
2024-01-20T04:57:39.483Z,1.32
2024-01-20T04:58:39.707Z,1.30
2024-01-20T04:59:39.381Z,1.22
2024-01-20T05:00:39.480Z,1.23
2024-01-20T05:01:40.783Z,1.28
2024-01-20T05:02:39.261Z,1.24
2024-01-20T05:03:39.385Z,1.19
2024-01-20T05:04:39.246Z,1.19
2024-01-20T05:05:39.187Z,1.20
2024-01-20T05:06:39.156Z,1.08
2024-01-20T05:07:39.072Z,1.06
2024-01-20T05:08:39.065Z,1.12
2024-01-20T05:09:39.020Z,1.10
2024-01-20T05:10:38.950Z,1.05
2024-01-20T05:11:38.905Z,1.02
2024-01-20T05:12:38.890Z,1.05
2024-01-20T05:13:38.860Z,1.06
2024-01-20T05:14:38.797Z,1.08
2024-01-20T05:15:38.760Z,1.06
2024-01-20T05:16:38.710Z,1.08
2024-01-20T05:17:38.798Z,1.12
2024-01-20T05:18:39.022Z,1.12
2024-01-20T05:19:38.726Z,1.12
2024-01-20T05:20:38.557Z,1.04
2024-01-20T05:21:38.539Z,1.06
2024-01-20T05:22:38.473Z,1.02
2024-01-20T05:23:38.721Z,1.04
2024-01-20T05:24:38.414Z,1.06
2024-01-20T05:25:38.354Z,1.10
2024-01-20T05:26:38.324Z,1.06
2024-01-20T05:27:38.512Z,0.99
2024-01-20T05:28:38.237Z,1.02
2024-01-20T05:29:38.479Z,1.02
2024-01-20T05:30:38.169Z,1.08
2024-01-20T05:31:38.122Z,1.05
2024-01-20T05:32:38.267Z,1.04
2024-01-20T05:33:38.166Z,1.06
2024-01-20T05:34:38.319Z,1.04
2024-01-20T05:35:37.960Z,1.06
2024-01-20T05:36:37.979Z,1.12
2024-01-20T05:37:37.875Z,1.06
2024-01-20T05:38:37.834Z,1.14
2024-01-20T05:39:37.818Z,1.13
2024-01-20T05:40:38.040Z,1.10
2024-01-20T05:41:37.720Z,1.23
2024-01-20T05:42:37.704Z,1.23
2024-01-20T05:43:37.641Z,1.23
2024-01-20T05:44:38.054Z,1.20
2024-01-20T05:45:37.586Z,1.20
2024-01-20T05:46:38.274Z,1.30
2024-01-20T05:47:37.474Z,1.28
2024-01-20T05:48:37.623Z,1.35
2024-01-20T05:49:37.540Z,1.30
2024-01-20T05:50:37.373Z,1.31
2024-01-20T05:51:37.366Z,1.34
2024-01-20T05:52:37.285Z,1.32
2024-01-20T05:53:37.257Z,1.41
2024-01-20T05:54:37.291Z,1.42
2024-01-20T05:55:37.173Z,1.45
2024-01-20T05:56:37.160Z,1.38
2024-01-20T05:57:37.199Z,1.45
2024-01-20T05:58:37.052Z,1.48
2024-01-20T05:59:37.294Z,1.52
2024-01-20T06:00:37.027Z,1.50
2024-01-20T06:01:36.954Z,1.53
2024-01-20T06:02:36.899Z,1.55
2024-01-20T06:03:36.922Z,1.50
2024-01-20T06:04:37.134Z,1.50
2024-01-20T06:05:36.777Z,1.50
2024-01-20T06:06:36.743Z,1.50
2024-01-20T06:07:36.698Z,1.50
2024-01-20T06:08:36.664Z,1.44
2024-01-20T06:09:36.946Z,1.60
2024-01-20T06:10:36.619Z,1.60
2024-01-20T06:11:36.569Z,1.53
2024-01-20T06:12:36.530Z,1.52
2024-01-20T06:13:36.461Z,1.55
2024-01-20T06:14:36.803Z,1.59
2024-01-20T06:15:36.396Z,1.44
2024-01-20T06:16:36.345Z,1.52
2024-01-20T06:17:36.382Z,1.58
2024-01-20T06:18:36.299Z,1.53
2024-01-20T06:19:36.512Z,1.56
2024-01-20T06:20:36.195Z,1.50
2024-01-20T06:21:36.255Z,1.45
2024-01-20T06:22:36.119Z,1.37
2024-01-20T06:23:36.092Z,1.31
2024-01-20T06:24:36.314Z,1.31
2024-01-20T06:25:35.999Z,1.35
2024-01-20T06:26:35.955Z,1.34
2024-01-20T06:27:35.923Z,1.31
2024-01-20T06:28:35.884Z,1.37
2024-01-20T06:29:36.111Z,1.26
2024-01-20T06:30:35.922Z,1.28
2024-01-20T06:31:35.754Z,1.26
2024-01-20T06:32:35.774Z,1.28
2024-01-20T06:33:35.768Z,1.19
2024-01-20T06:34:35.959Z,1.20
2024-01-20T06:35:35.594Z,1.22
2024-01-20T06:36:35.596Z,1.13
2024-01-20T06:37:35.514Z,1.06
2024-01-20T06:38:35.480Z,1.13
2024-01-20T06:39:35.767Z,1.05
2024-01-20T06:40:35.393Z,1.08
2024-01-20T06:41:35.365Z,1.06
2024-01-20T06:42:35.448Z,1.10
2024-01-20T06:43:35.281Z,1.10
2024-01-20T06:44:35.580Z,1.08
2024-01-20T06:45:35.331Z,1.10
2024-01-20T06:46:35.196Z,1.17
2024-01-20T06:47:35.886Z,1.20
2024-01-20T06:48:35.242Z,1.17
2024-01-20T06:49:35.464Z,1.20
2024-01-20T06:50:35.003Z,1.22
2024-01-20T06:51:35.042Z,1.23
2024-01-20T06:52:34.928Z,1.40
2024-01-20T06:53:34.884Z,1.30
2024-01-20T06:54:35.224Z,1.44
2024-01-20T06:55:34.811Z,1.52
2024-01-20T06:56:34.774Z,1.60
2024-01-20T06:57:34.794Z,1.58
2024-01-20T06:58:34.704Z,1.58
2024-01-20T06:59:34.954Z,1.67
2024-01-20T07:00:34.692Z,1.63
2024-01-20T07:01:34.564Z,1.67
2024-01-20T07:02:34.540Z,1.76
2024-01-20T07:03:34.596Z,1.77
2024-01-20T07:04:34.772Z,1.70
2024-01-20T07:05:34.451Z,1.76
2024-01-20T07:06:34.389Z,1.73
2024-01-20T07:07:34.326Z,1.84
2024-01-20T07:08:34.869Z,1.71
2024-01-20T07:09:34.542Z,1.80
2024-01-20T07:10:34.230Z,1.84
2024-01-20T07:11:34.186Z,1.77
2024-01-20T07:12:34.222Z,1.77
2024-01-20T07:13:34.093Z,1.77
2024-01-20T07:14:34.585Z,1.80
2024-01-20T07:15:34.134Z,1.74
2024-01-20T07:16:33.972Z,1.71
2024-01-20T07:17:34.048Z,1.74
2024-01-20T07:18:33.914Z,1.71
2024-01-20T07:19:34.197Z,1.70
2024-01-20T07:20:33.835Z,1.70
2024-01-20T07:21:33.783Z,1.68
2024-01-20T07:22:33.739Z,1.77
2024-01-20T07:23:33.709Z,1.73
2024-01-20T07:24:34.045Z,1.81
2024-01-20T07:25:33.633Z,1.80
2024-01-20T07:26:33.589Z,1.70
2024-01-20T07:27:33.615Z,1.70
2024-01-20T07:28:33.510Z,1.68
2024-01-20T07:29:33.746Z,1.60
2024-01-20T07:30:33.541Z,1.68
2024-01-20T07:31:33.419Z,1.66
2024-01-20T07:32:33.420Z,1.60
2024-01-20T07:33:33.403Z,1.60
2024-01-20T07:35:33.237Z,1.62
2024-01-20T07:36:33.347Z,1.62
2024-01-20T07:37:33.210Z,1.63
2024-01-20T07:38:33.114Z,1.59
2024-01-20T07:39:33.402Z,1.58
2024-01-20T07:40:33.034Z,1.55
2024-01-20T07:41:33.000Z,1.60
2024-01-20T07:42:33.047Z,1.59
2024-01-20T07:43:32.939Z,1.58
2024-01-20T07:44:35.043Z,1.55
2024-01-20T07:45:32.936Z,1.59
2024-01-20T07:46:32.801Z,1.59
2024-01-20T07:47:33.767Z,1.70
2024-01-20T07:48:33.120Z,1.70
2024-01-20T07:49:32.808Z,1.74
2024-01-20T07:50:32.658Z,1.68
2024-01-20T07:51:32.673Z,1.66
2024-01-20T07:52:32.568Z,1.70
2024-01-20T07:53:32.548Z,1.67
2024-01-20T07:54:32.817Z,1.74
2024-01-20T07:55:32.483Z,1.74
2024-01-20T07:56:33.245Z,1.80
2024-01-20T07:57:32.434Z,1.85
2024-01-20T07:58:32.609Z,1.87
2024-01-20T07:59:32.298Z,1.91
2024-01-20T08:00:32.275Z,1.84
2024-01-20T08:01:32.268Z,1.95
2024-01-20T08:02:32.180Z,2.02
2024-01-20T08:03:32.454Z,2.00
2024-01-20T08:04:32.126Z,2.07
2024-01-20T08:05:35.148Z,2.10
2024-01-20T08:06:32.095Z,2.14
2024-01-20T08:07:31.990Z,2.25
2024-01-20T08:08:32.219Z,2.28
2024-01-20T08:09:31.932Z,2.26
2024-01-20T08:10:31.878Z,2.20
2024-01-20T08:11:31.833Z,2.36
2024-01-20T08:12:31.867Z,2.39
2024-01-20T08:13:31.752Z,2.33
2024-01-20T08:14:31.998Z,2.42
2024-01-20T08:15:31.724Z,2.50
2024-01-20T08:16:31.636Z,2.57
2024-01-20T08:17:31.640Z,2.53
2024-01-20T08:18:31.634Z,2.61
2024-01-20T08:19:31.623Z,2.57
2024-01-20T08:20:31.478Z,2.65
2024-01-20T08:21:31.455Z,2.69
2024-01-20T08:22:31.401Z,2.68
2024-01-20T08:23:31.375Z,2.72
2024-01-20T08:24:31.662Z,2.65
2024-01-20T08:25:31.292Z,2.71
2024-01-20T08:26:31.262Z,2.74
2024-01-20T08:27:31.276Z,2.77
2024-01-20T08:28:31.168Z,2.77
2024-01-20T08:29:31.418Z,2.80
2024-01-20T08:30:33.836Z,2.77
2024-01-20T08:31:31.148Z,2.79
2024-01-20T08:32:31.095Z,2.82
2024-01-20T08:33:31.038Z,2.77
2024-01-20T08:34:31.219Z,2.83
2024-01-20T08:35:30.900Z,2.86
2024-01-20T08:36:30.929Z,2.80
2024-01-20T08:37:30.824Z,2.85
2024-01-20T08:38:30.784Z,2.86
2024-01-20T08:39:31.168Z,2.92
2024-01-20T08:40:30.707Z,2.86
2024-01-20T08:41:30.669Z,3.01
2024-01-20T08:42:30.694Z,3.01
2024-01-20T08:43:30.592Z,3.03
2024-01-20T08:44:30.825Z,3.16
2024-01-20T08:45:30.596Z,3.14
2024-01-20T08:46:30.479Z,3.19
2024-01-20T08:47:30.457Z,3.37
2024-01-20T08:48:30.455Z,3.47
2024-01-20T08:49:30.630Z,3.42
2024-01-20T08:50:30.322Z,3.48
2024-01-20T08:51:30.432Z,3.56
2024-01-20T08:52:30.262Z,3.51
2024-01-20T08:53:30.223Z,3.45
2024-01-20T08:54:30.481Z,3.60
2024-01-20T08:55:30.146Z,3.60
2024-01-20T08:56:30.408Z,3.58
2024-01-20T08:57:30.177Z,3.53
2024-01-20T08:58:30.026Z,3.65
2024-01-20T08:59:30.273Z,3.65
2024-01-20T09:00:30.054Z,3.60
2024-01-20T09:01:29.980Z,3.60
2024-01-20T09:02:29.914Z,3.56
2024-01-20T09:03:29.965Z,3.53
2024-01-20T09:04:30.078Z,3.62
2024-01-20T09:05:37.905Z,3.56
2024-01-20T09:06:29.939Z,3.62
2024-01-20T09:07:29.709Z,3.60
2024-01-20T09:08:29.644Z,3.62
2024-01-20T09:09:29.674Z,3.42
2024-01-20T09:10:29.579Z,3.44
2024-01-20T09:11:29.537Z,3.45
2024-01-20T09:12:29.577Z,3.45
2024-01-20T09:13:29.472Z,3.50
2024-01-20T09:14:29.695Z,3.42
2024-01-20T09:15:29.426Z,3.47
2024-01-20T09:16:29.347Z,3.36
2024-01-20T09:17:30.256Z,3.48
2024-01-20T09:18:29.742Z,3.41
2024-01-20T09:19:29.313Z,3.41
2024-01-20T09:20:29.352Z,3.41
2024-01-20T09:21:29.219Z,3.45
2024-01-20T09:22:29.114Z,3.47
2024-01-20T09:23:29.105Z,3.50
2024-01-20T09:24:29.047Z,3.37
2024-01-20T09:25:29.018Z,3.47
2024-01-20T09:26:28.979Z,3.44
2024-01-20T09:27:28.950Z,3.42
2024-01-20T09:28:28.882Z,3.36
2024-01-20T09:29:28.884Z,3.42
2024-01-20T09:30:28.803Z,3.37
2024-01-20T09:31:28.801Z,3.42
2024-01-20T09:32:28.774Z,3.47
2024-01-20T09:33:28.840Z,3.44
2024-01-20T09:34:29.033Z,3.47
2024-01-20T09:35:28.631Z,3.58
2024-01-20T09:36:28.597Z,3.62
2024-01-20T09:37:36.336Z,3.53
2024-01-20T09:38:28.497Z,3.53
2024-01-20T09:39:28.899Z,3.41
2024-01-20T09:40:28.439Z,3.47
2024-01-20T09:41:28.396Z,3.36
2024-01-20T09:42:28.418Z,3.42
2024-01-20T09:43:28.313Z,3.26
2024-01-20T09:44:28.552Z,3.37
2024-01-20T09:45:28.347Z,3.22
2024-01-20T09:46:28.197Z,3.28
2024-01-20T09:47:28.182Z,3.19
2024-01-20T09:48:28.284Z,3.14
2024-01-20T09:49:28.440Z,3.19
2024-01-20T09:50:28.051Z,3.21
2024-01-20T09:51:28.043Z,3.13
2024-01-20T09:52:27.971Z,3.00
2024-01-20T09:53:27.947Z,3.00
2024-01-20T09:54:28.206Z,2.93
2024-01-20T09:55:27.854Z,2.87
2024-01-20T09:56:27.821Z,2.80
2024-01-20T09:57:27.816Z,2.79
2024-01-20T09:58:27.744Z,2.75
2024-01-20T09:59:28.053Z,2.79
2024-01-20T10:00:27.707Z,2.74
2024-01-20T10:01:27.681Z,2.71
2024-01-20T10:02:27.589Z,2.75
2024-01-20T10:03:27.609Z,2.62
2024-01-20T10:04:27.601Z,2.67
2024-01-20T10:05:27.504Z,2.64
2024-01-20T10:06:27.486Z,2.65
2024-01-20T10:07:27.394Z,2.65
2024-01-20T10:08:27.362Z,2.65
2024-01-20T10:09:29.799Z,2.74
2024-01-20T10:10:27.283Z,2.61
2024-01-20T10:11:27.293Z,2.65
2024-01-20T10:12:27.305Z,2.65
2024-01-20T10:13:27.175Z,2.77
2024-01-20T10:14:27.408Z,2.65
2024-01-20T10:15:28.867Z,2.65
2024-01-20T10:16:27.050Z,2.62
2024-01-20T10:17:27.033Z,2.65
2024-01-20T10:18:27.014Z,2.75
2024-01-20T10:19:27.277Z,2.64
2024-01-20T10:20:26.900Z,2.69
2024-01-20T10:21:26.900Z,2.72
2024-01-20T10:22:26.820Z,2.79
2024-01-20T10:23:26.819Z,2.90
2024-01-20T10:24:26.766Z,2.80
2024-01-20T10:25:26.703Z,2.77
2024-01-20T10:26:26.665Z,2.90
2024-01-20T10:27:26.671Z,2.86
2024-01-20T10:28:26.873Z,2.77
2024-01-20T10:29:26.584Z,2.80
2024-01-20T10:30:26.553Z,2.79
2024-01-20T10:31:26.496Z,2.82
2024-01-20T10:32:26.491Z,2.79
2024-01-20T10:33:26.797Z,2.74
2024-01-20T10:34:26.445Z,2.77
2024-01-20T10:35:26.482Z,2.79
2024-01-20T10:36:26.331Z,2.77
2024-01-20T10:37:26.257Z,2.74
2024-01-20T10:38:26.573Z,2.89
2024-01-20T10:39:26.287Z,2.85
2024-01-20T10:40:26.147Z,2.98
2024-01-20T10:41:26.127Z,2.89
2024-01-20T10:42:26.090Z,2.89
2024-01-20T10:43:26.311Z,3.00
2024-01-20T10:44:26.014Z,3.14
2024-01-20T10:45:25.990Z,3.29
2024-01-20T10:46:25.922Z,3.34
2024-01-20T10:47:26.171Z,3.42
2024-01-20T10:48:25.946Z,3.63
2024-01-20T10:49:25.890Z,3.59
2024-01-20T10:50:25.774Z,3.59
2024-01-20T10:51:25.813Z,3.60
2024-01-20T10:52:26.014Z,3.65
2024-01-20T10:53:25.941Z,3.70
2024-01-20T10:54:25.662Z,3.62
2024-01-20T10:55:25.666Z,3.66
2024-01-20T10:56:25.546Z,3.60
2024-01-20T10:57:25.806Z,3.56
2024-01-20T10:58:25.564Z,3.50
2024-01-20T10:59:25.523Z,3.44
2024-01-20T11:00:25.473Z,3.47
2024-01-20T11:01:25.372Z,3.41
2024-01-20T11:02:25.602Z,3.28
2024-01-20T11:03:25.331Z,3.28
2024-01-20T11:04:25.274Z,3.31
2024-01-20T11:05:25.232Z,3.23
2024-01-20T11:06:25.425Z,3.16
2024-01-20T11:07:25.403Z,3.26
2024-01-20T11:08:25.151Z,3.18
2024-01-20T11:09:25.214Z,3.21
2024-01-20T11:10:25.040Z,3.19
2024-01-20T11:11:24.990Z,3.14
2024-01-20T11:12:25.241Z,3.23
2024-01-20T11:13:24.915Z,3.25
2024-01-20T11:14:24.882Z,3.26
2024-01-20T11:15:24.870Z,3.29
2024-01-20T11:16:24.811Z,3.21
2024-01-20T11:17:25.108Z,3.23
2024-01-20T11:18:24.949Z,3.29
2024-01-20T11:19:24.789Z,3.26
2024-01-20T11:20:24.707Z,3.18
2024-01-20T11:21:24.633Z,3.22
2024-01-20T11:22:24.872Z,3.19
2024-01-20T11:23:24.565Z,3.23
2024-01-20T11:24:24.538Z,3.21
2024-01-20T11:25:24.479Z,3.31
2024-01-20T11:26:24.429Z,3.19
2024-01-20T11:27:24.432Z,3.34
2024-01-20T11:28:24.640Z,3.29
2024-01-20T11:29:24.347Z,3.34
2024-01-20T11:30:24.818Z,3.41
2024-01-20T11:31:24.243Z,3.41
2024-01-20T11:32:24.232Z,3.40
2024-01-20T11:33:24.541Z,3.31
2024-01-20T11:34:24.232Z,3.31
2024-01-20T11:35:24.090Z,3.25
2024-01-20T11:36:24.082Z,3.36
2024-01-20T11:37:24.017Z,3.32
2024-01-20T11:38:24.272Z,3.40
2024-01-20T11:39:24.102Z,3.32
2024-01-20T11:40:23.901Z,3.45
2024-01-20T11:41:23.857Z,3.42
2024-01-20T11:42:23.870Z,3.37
2024-01-20T11:43:24.049Z,3.44
2024-01-20T11:44:23.745Z,3.40
2024-01-20T11:45:23.746Z,3.50
2024-01-20T11:46:23.719Z,3.36
2024-01-20T11:47:23.640Z,3.48
2024-01-20T11:48:23.740Z,3.44
2024-01-20T11:49:23.675Z,3.45
2024-01-20T11:50:23.515Z,3.53
2024-01-20T11:51:23.519Z,3.59
2024-01-20T11:52:23.439Z,3.55
2024-01-20T11:53:23.938Z,3.59
2024-01-20T11:54:23.380Z,3.47
2024-01-20T11:55:23.327Z,3.63
2024-01-20T11:56:23.288Z,3.58
2024-01-20T11:57:23.297Z,3.53
2024-01-20T11:58:23.673Z,3.55
2024-01-20T11:59:23.170Z,3.60
2024-01-20T12:00:23.204Z,3.59
2024-01-20T12:01:23.173Z,3.60
2024-01-20T12:02:23.063Z,3.60
2024-01-20T12:03:23.318Z,3.56
2024-01-20T12:04:23.028Z,3.59
2024-01-20T12:05:23.015Z,3.63
2024-01-20T12:06:23.009Z,3.63
2024-01-20T12:07:22.993Z,3.62
2024-01-20T12:08:23.009Z,3.59
2024-01-20T12:09:22.851Z,3.77
2024-01-20T12:10:22.762Z,3.62
2024-01-20T12:11:22.720Z,3.76
2024-01-20T12:12:22.764Z,3.77
2024-01-20T12:13:22.643Z,3.73
2024-01-20T12:14:22.610Z,3.69
2024-01-20T12:15:22.632Z,3.80
2024-01-20T12:16:22.552Z,3.69
2024-01-20T12:17:22.520Z,3.76
2024-01-20T12:18:22.543Z,3.81
2024-01-20T12:19:22.493Z,3.78
2024-01-20T12:20:22.384Z,3.70
2024-01-20T12:21:22.381Z,3.81
2024-01-20T12:22:23.142Z,3.69
2024-01-20T12:23:22.271Z,3.74
2024-01-20T12:24:22.269Z,3.76
2024-01-20T12:25:22.197Z,3.77
2024-01-20T12:26:22.156Z,3.78
2024-01-20T12:27:22.409Z,3.78
2024-01-20T12:28:22.090Z,3.88
2024-01-20T12:29:22.060Z,3.88
2024-01-20T12:30:22.039Z,3.84
2024-01-20T12:31:23.191Z,3.91
2024-01-20T12:32:22.213Z,3.87
2024-01-20T12:33:21.971Z,3.83
2024-01-20T12:34:21.942Z,3.95
2024-01-20T12:35:21.815Z,3.94
2024-01-20T12:36:21.809Z,3.88
2024-01-20T12:37:22.454Z,3.88
2024-01-20T12:38:21.706Z,3.95
2024-01-20T12:39:21.782Z,3.95
2024-01-20T12:40:21.626Z,3.94
2024-01-20T12:41:21.617Z,3.95
2024-01-20T12:42:21.844Z,3.87
2024-01-20T12:43:21.526Z,3.96
2024-01-20T12:44:21.477Z,3.87
2024-01-20T12:45:21.483Z,3.91
2024-01-20T12:46:21.410Z,3.99
2024-01-20T12:47:21.644Z,3.91
2024-01-20T12:48:21.383Z,3.87
2024-01-20T12:49:21.368Z,3.94
2024-01-20T12:50:21.261Z,3.91
2024-01-20T12:51:21.285Z,3.92
2024-01-20T12:52:21.447Z,3.99
2024-01-20T12:53:21.149Z,3.95
2024-01-20T12:54:21.143Z,3.98
2024-01-20T12:55:21.064Z,3.87
2024-01-20T12:56:21.301Z,3.99
2024-01-20T12:57:20.996Z,4.01
2024-01-20T12:58:20.950Z,4.01
2024-01-20T12:59:20.980Z,3.95
2024-01-20T13:00:20.974Z,3.98
2024-01-20T13:01:21.138Z,3.99
2024-01-20T13:02:20.813Z,4.10
2024-01-20T13:03:20.775Z,4.05
2024-01-20T13:04:20.720Z,4.10
2024-01-20T13:05:20.861Z,4.04
2024-01-20T13:06:20.991Z,4.06
2024-01-20T13:07:20.697Z,3.99
2024-01-20T13:08:20.570Z,4.02
2024-01-20T13:09:20.658Z,4.04
2024-01-20T13:10:20.495Z,3.99
2024-01-20T13:11:20.735Z,4.06
2024-01-20T13:12:20.440Z,4.02
2024-01-20T13:13:20.388Z,4.02
2024-01-20T13:14:20.396Z,4.05
2024-01-20T13:15:20.501Z,4.04
2024-01-20T13:16:20.592Z,3.99
2024-01-20T13:17:20.235Z,4.10
2024-01-20T13:18:20.300Z,4.02
2024-01-20T13:19:20.334Z,4.10